Beaufort, SC (29901)

8:08 PM EST on December 10, 2016 (GMT -0500)
Downtown Marina Docks | | Change Station

Elev 0 ft 32.43 °N, 80.67 °W | Updated 7 seconds ago

Haze
Haze
42.8 °F
Feels Like 43 °F
N
2.7
Wind Variable Wind from WSW

Today
High -- | Low -- °F
--% Chance of Precip.
Yesterday
High -- | Low -- °F
Precip. -- in
Pressure 30.47 in
Visibility 5.0 miles
Clouds Clear
Windchill 43 °F
Dew Point 30 °F
Humidity 61%
Rainfall 0.00 in
Snow Depth Not available.
7:13 AM 5:17 PM
Waxing Gibbous, 87% visible
METAR KARW 110055Z AUTO 05006KT 5SM HZ CLR 07/00 A3047 RMK AO2
Pressure 30.47 in
Visibility 5.0 miles
Clouds Clear
Windchill 43 °F
Dew Point 30 °F
Humidity 61%
Rainfall 0.00 in
Snow Depth Not available.
7:13 AM 5:17 PM
Waxing Gibbous, 87% visible
METAR KARW 110055Z AUTO 05006KT 5SM HZ CLR 07/00 A3047 RMK AO2

10-Day Weather Forecast

Almanac

Astronomy

Dec. 10, 2016 Rise Set
Actual Time
Civil Twilight
Nautical Twilight
Astronomical Twilight
Moon
Length of Visible Light
Length of Day
Tomorrow will be .
, % of the Moon is Illuminated

Today's Extremes

State Highs State Lows

Community

WunderPhotos

Upload Photos

1,956,685 photos uploaded!

WunderBlog® & News

Nearby

Air Quality

  Air Quality AQ Index Pollutant
Not available.

Snow Depth

Station Depth Elevation

Earthquake Activity

City Distance Mag. Time & Date
Minimum magnitude displayed is 2.5.

Coastal Water Temperatures

Place Temperature

Stations

Nearby Weather Stations

Station Location Temp. Windchill Dew Point Humidity Wind Precip. Elev Updated Type
                   

Watches & Warnings

There are currently no watches in effect.